Canyon Dam, California
Current Conditions -  °F | °C
As of 9:35 PM on Saturday 25 Oct 2014 (Local Time) from KCIC Reporting Station
Broken Clouds Broken Clouds  
Wind Chill: 61°   Ceiling: 9500
Heat Index: 61°   Visibility: 10mi
Dew Point: 55°   Wind: 12mph
Humidity: 82%   Direction: 130°SE
Pressure: 30.05"   Gusts: NA
Location:  40.2035°N, 121.147°W
Report Text: KCIC 260435Z AUTO 13010KT 10SM BKN095 16/13 A3005 RMK AO1
Loading
Personal Weather Stations






























Interactive Weather Map
Tropical Storm Tracking
New forecast layout! Learn more

10-Day Weather Forecast

Advertisements
Track Severe Weather on mobile